Sawyer, Michigan
Current Conditions -  °F | °C
As of 10:55 PM on Wednesday 17 Dec 2014 (Local Time) from KMGC Reporting Station
Overcast Overcast  
Wind Chill: 21°   Ceiling: 2500
Heat Index: 28°   Visibility: 10mi
Dew Point: 18°   Wind: 7mph
Humidity: 64%   Direction: 290°WNW
Pressure: 30.27"   Gusts: NA
Location:  41.89°N, 86.59°W
Report Text: KMGC 180355Z AUTO 29006KT 10SM OVC025 M02/M08 A3027 RMK AO2
Loading
Personal Weather Stations






























Interactive Weather Map New forecast layout! Learn more

10-Day Weather Forecast

Advertisements
Track Severe Weather on mobile